Charles Clark

Recruteur - Charlton Athletic
20 Févr 2028
Dimanche
Processus

Personnalité

Adaptabilité (9) Ambition (3) Controverse (15) Loyauté (1) Pression (16) Professionnalisme (1) Sportivité (6) Tempérament (10)

Profil

Style d'entraînement Démocratique
Diplôme Continental C
Détermination 4
Gestion des joueurs 7
Motivation 4
Discipline 9
Satisfaction professionnelle
100%
Fatigue
0%
Rôle Recruteur
Salaire 54.8K p/s
Contrat 14.03.2028

Performance

Comportement Bon
Efficacité de l'entraînement
41%
Développement des joueurs
30%
Prévention des blessures
30%
Mise en place tactique
55%

Événements récents

A recommandé une cible de transfert maintenant
A recommandé une cible de transfert maintenant
A recommandé une cible de transfert maintenant
A recommandé une cible de transfert maintenant
A recommandé une cible de transfert maintenant
Négociation de contrat entamée maintenant
Négociation de contrat entamée maintenant
Négociation de contrat entamée maintenant

Suivi en cours

178
Joueur Club Statut Capacité Confiance Observé Dernière observation Dernier vote
Jarvis Thornton Sheffield Wednesday Rapport prêt 114 / 108 76% 1 31.01.2028 -
Santiago Hezze Chaves Actif 132 / 133 62% 1 01.01.2028 Approuver
Aurélien Scheidler Tondela Actif 119 / 119 67% 1 01.01.2028 Approuver
Jefry Zapata Danubio Actif 118 / 118 67% 1 01.01.2028 Approuver
Jim Thwaites Manchester United Perdu 110 / 124 76% 1 01.01.2028 -
Dion Beljo Standard Liege Actif 131 / 132 66% 1 01.06.2027 Approuver
Mandla Erasmus SuperSport United Actif 115 / 129 40% 5 30.05.2027 -
Nicolas Madsen Queens Park Rangers Actif 138 / 123 40% 1 30.05.2027 -
Romano Schmid Frosinone Actif 147 / 139 40% 1 30.05.2027 -
Kwadwo Baah Watford Actif 135 / 121 40% 4 29.05.2027 -
Shea Charles Southampton Actif 142 / 137 40% 1 29.05.2027 -
Tyler Goodrham Oxford United Actif 129 / 123 40% 1 29.05.2027 -
Derensili Sanches Fernandes Huddersfield Town Actif 128 / 124 40% 3 27.05.2027 -
Alex Robertson Cardiff City Actif 123 / 122 40% 1 27.05.2027 -
Cian Ashford Cardiff City Actif 117 / 120 40% 3 26.05.2027 -
Armando Dobra Chesterfield Actif 111 / 105 40% 1 26.05.2027 -
Borna Knezović Casarano Actif 100 / 107 40% 4 25.05.2027 -
Ronald Swansea City Actif 126 / 125 40% 1 25.05.2027 -
Paris Maghoma Norwich City Actif 130 / 125 40% 1 25.05.2027 -
Declan Frith Peterborough United Actif 109 / 115 40% 1 22.05.2027 -
Florentino Luís Ipswich Town Actif 134 / 137 40% 4 21.05.2027 -
Mduduzi Shabalala Kaizer Chiefs Actif 120 / 117 40% 4 21.05.2027 -
Ilyas Ansah Hull City Actif 128 / 129 40% 2 21.05.2027 -
Isaiah Jones Luton Town Actif 127 / 125 40% 3 20.05.2027 -
Zeidane Inoussa Swansea City Actif 128 / 120 40% 2 20.05.2027 -
Antonio Galeano Remo Stars Actif 127 / 131 40% 1 20.05.2027 -
Harry Clarke Preston Actif 136 / 133 40% 1 19.05.2027 -
Jason Knight Bristol City Actif 135 / 129 40% 1 18.05.2027 -
Lorenzo De Leo Renate Actif 95 / 109 40% 3 17.05.2027 -
Baba N'Diaye Chelyabinsk Actif 88 / 87 40% 1 17.05.2027 -
Finn Azaz Southampton Actif 133 / 134 40% 4 14.05.2027 -
Bali Mumba Huddersfield Town Actif 124 / 112 40% 1 14.05.2027 -
Nicolás Azambuja Cádiz Actif 122 / 132 40% 1 14.05.2027 -
Jean Galindo Imotski Actif 79 / 92 40% 1 13.05.2027 -
Miloš Jovičić Zabbar St. Patrick Actif 87 / 92 40% 1 13.05.2027 -
Lwanda Mbanjwa Maritzburg United Actif 101 / 105 40% 3 12.05.2027 -
Morgan Whittaker Middlesbrough Actif 132 / 125 40% 3 11.05.2027 -
Simon Ramabu Polokwane City Actif 109 / 98 40% 3 11.05.2027 -
Ali Ahmed Norwich City Actif 126 / 116 40% 2 11.05.2027 -
Stanley Mills Oxford United Actif 120 / 127 40% 2 09.05.2027 -
Aidan Dausch AC Ajaccio Actif 77 / 87 40% 1 09.05.2027 -
Baylee Dipepa Norwich City Actif 104 / 114 40% 1 09.05.2027 -
Luke Baartman ES Mostaganem Actif 99 / 108 40% 2 08.05.2027 -
Amaury Morales Pumas UNAM Actif 107 / 124 40% 1 08.05.2027 -
Darlvin Yeboah Bechem United Actif 73 / 76 40% 2 07.05.2027 -
Giorgi Chakvetadze Watford Actif 123 / 122 40% 2 02.05.2027 -
Richard Koné Queens Park Rangers Actif 123 / 129 40% 1 01.05.2027 -
Markus Jensen Nacional Actif 105 / 108 40% 1 01.05.2027 -
Oswin Appollis Orlando Pirates Actif 116 / 113 40% 3 29.04.2027 -
Tommy Conway Middlesbrough Actif 130 / 128 40% 3 28.04.2027 -
Dávid Strelec Middlesbrough Actif 132 / 139 40% 3 28.04.2027 -
Sam Bell Bristol City Actif 121 / 120 40% 1 27.04.2027 -
Ollie Tanner Cardiff City Actif 118 / 114 40% 3 26.04.2027 -
Tomáš Rigo Stoke City Actif 125 / 134 40% 2 26.04.2027 -
Daniel Kyerewaa Reading Actif 122 / 107 40% 1 24.04.2027 -
Kasey McAteer Ipswich Town Actif 135 / 128 40% 1 24.04.2027 -
Williams Manyama SuperSport United Actif 120 / 112 40% 5 23.04.2027 -
Tshepang Moremi Orlando Pirates Actif 121 / 109 40% 4 23.04.2027 -
Nicolas Verkooijen PSV Actif 109 / 121 40% 2 23.04.2027 -
Jack Diamond Stockport County Actif 115 / 114 40% 1 23.04.2027 -
Kabiru Abdullahi Barau Actif 93 / 96 40% 1 23.04.2027 -
Isaac Price West Bromwich Albion Actif 122 / 123 40% 1 20.04.2027 -
Xavier Amaechi Plymouth Argyle Actif 111 / 113 40% 1 18.04.2027 -
Max Bird Birmingham Actif 130 / 128 40% 1 18.04.2027 -
Bongani Modiba Black Aces Actif 127 / 114 40% 3 17.04.2027 -
Tyrese Campbell Sheffield United Actif 126 / 133 40% 1 16.04.2027 -
Andre Brooks Sheffield United Actif 129 / 130 40% 1 16.04.2027 -
Kelvin Akinmola Bendel Insurance Actif 81 / 90 40% 1 16.04.2027 -
Kirill Cheburakov Rostov Actif 76 / 86 40% 1 16.04.2027 -
Dramane Kamagaté USM Alger Actif 114 / 107 40% 1 16.04.2027 -
Ben Ahmed Kohili Paradou Actif 112 / 114 40% 2 14.04.2027 -
David Turnbull Cardiff City Actif 124 / 123 40% 1 12.04.2027 -
Jack McGlynn Stoke City Actif 125 / 137 40% 1 11.04.2027 -
Welington Southampton Actif 139 / 121 40% 2 09.04.2027 -
Joseph Hungbo Wigan Athletic Actif 118 / 112 40% 2 09.04.2027 -
Derry Murkin Derby County Actif 126 / 134 40% 1 08.04.2027 -
Tom Fellows Southampton Actif 128 / 131 40% 2 04.04.2027 -
Jack Rudoni Coventry City Actif 136 / 131 40% 1 04.04.2027 -
Caolan Boyd-Munce Wycombe Wanderers Actif 126 / 114 40% 1 02.04.2027 -
Roberto Iliev Slavia Sofia Actif 96 / 104 40% 1 02.04.2027 -
Anestis Mythou PAOK Actif 90 / 102 40% 2 30.03.2027 -
Gustavo Ferreira Benfica Actif 88 / 86 40% 2 28.03.2027 -
Adama Goïta Remo Stars Actif 85 / 93 40% 2 28.03.2027 -
Ethan Williams Peterborough United Actif 120 / 125 40% 1 28.03.2027 -
Thalente Mbatha Orlando Pirates Actif 115 / 106 40% 2 26.03.2027 -
Will Lankshear Middlesbrough Actif 129 / 119 40% 3 25.03.2027 -
Jacques Ekomié Wrexham Actif 131 / 124 40% 1 25.03.2027 -
Mikey Johnston West Bromwich Albion Actif 115 / 128 40% 1 22.03.2027 -
David Kalokoh Ajax Actif 112 / 120 40% 1 19.03.2027 -
Agustín Fernández NK Zavrc Actif 86 / 95 40% 1 16.03.2027 -
Rocco Vata Watford Actif 115 / 118 40% 1 16.03.2027 -
Ognjen Bondžulić Mladost Lucani Actif 104 / 108 40% 2 15.03.2027 -
Fletcher Holman Swindon Town Actif 82 / 93 40% 2 14.03.2027 -
Dom Ballard Leyton Orient Actif 120 / 127 40% 3 12.03.2027 -
Víctor Guzmán Sporting CP Actif 100 / 103 40% 2 11.03.2027 -
Thomas Waddingham Portsmouth Actif 107 / 114 40% 1 05.03.2027 -
Hazeem Bakre Crawley Town Actif 85 / 87 40% 1 02.03.2027 -
Riley Owen Trento Actif 100 / 101 40% 1 08.02.2027 -
Davide Bartesaghi AC Milan Actif 128 / 140 40% 1 08.02.2027 -
Felix Afful Liberty Professionals Actif 88 / 84 40% 1 07.02.2027 -
Tiago Freitas Benfica Actif 109 / 107 40% 1 07.02.2027 -
Dean Huijsen Villarreal Actif 137 / 149 40% 1 07.02.2027 -
Keagan Tau Ajax Cape Town Actif 82 / 106 40% 1 06.02.2027 -
Keagan Phiri Platinum Stars Actif 107 / 93 40% 1 06.02.2027 -
Zane Albarus Cambridge United Actif 91 / 101 40% 1 06.02.2027 -
Leandro Martins Benfica Actif 87 / 96 40% 1 05.02.2027 -
Joel McGregor Swindon Town Actif 85 / 99 40% 1 05.02.2027 -
Darryl Bakola Padova Actif 110 / 115 40% 1 01.02.2027 -
Jan Bürger Gillingham Actif 106 / 117 40% 1 01.02.2027 -
Emmanuel Mathias Ikorodu City Actif 89 / 100 40% 1 01.02.2027 -
Mohammed Yahaya Great Olympics Actif 82 / 94 40% 2 30.12.2026 -
Niall Ennis Blackpool Actif 118 / 115 40% 1 30.12.2026 -
Ruben van Bommel Ferencvaros Actif 134 / 135 40% 2 28.12.2026 -
Toby Collyer West Bromwich Albion Actif 125 / 128 40% 1 28.12.2026 -
Leonardo Campana New England Revolution Actif 117 / 116 40% 1 27.12.2026 -
Siyanda Msani University of Pretoria Actif 98 / 109 40% 1 24.12.2026 -
Kutlwano Letlhaku Ajax Cape Town Actif 118 / 129 40% 1 24.12.2026 -
Tyreece Simpson Maritzburg United Actif 92 / 92 40% 2 22.12.2026 -
Tomás González Piast Actif 119 / 120 40% 1 22.12.2026 -
Hakim Sulemana Medeama Actif 94 / 110 40% 1 21.12.2026 -
Bénie Traoré New York City Actif 127 / 136 40% 3 19.12.2026 -
Josh Sargent Toronto FC Actif 129 / 138 40% 1 18.12.2026 -
Itumeleng Zungu Free State Stars Actif 95 / 100 40% 1 17.12.2026 -
Kévin Denkey FC Cincinnati Actif 136 / 127 40% 2 14.12.2026 -
Rhian Brewster Oxford United Actif 122 / 111 40% 1 14.12.2026 -
Themba Ngcobo SuperSport United Actif 129 / 113 40% 3 13.12.2026 -
Sagir Arce Paralimni Actif 91 / 100 40% 2 13.12.2026 -
Tom Cannon Sheffield United Actif 120 / 123 40% 1 12.12.2026 -
Jesus Ferreira Seattle Sounders Actif 120 / 122 40% 2 09.12.2026 -
Cheikh Sabaly Vancouver Whitecaps Actif 128 / 119 40% 4 05.12.2026 -
Giacomo Raspadori Atalanta Actif 146 / 140 40% 2 05.12.2026 -
Cameron Archer Southampton Actif 120 / 118 40% 1 04.12.2026 -
Theo Corbeanu Toronto FC Actif 115 / 119 40% 1 02.12.2026 -
Bismark Asante Ashanti Gold Actif 87 / 99 40% 2 01.12.2026 -
Kwame Opoku Asante Kotoko Actif 107 / 99 40% 1 01.12.2026 -
Carlos Vicente Birmingham Actif 146 / 142 40% 2 24.11.2026 -
Tomás Chancalay Minnesota United FC Actif 131 / 117 40% 1 24.11.2026 -
Bongani Mothiba SuperSport United Actif 78 / 78 40% 1 22.11.2026 -
Petar Stanić Ludogorets Actif 133 / 131 40% 1 21.11.2026 -
Kenan Dervišagić Floriana Actif 101 / 104 40% 2 20.11.2026 -
Sota Kitano Luzern Actif 129 / 120 40% 2 20.11.2026 -
Archie Goodwin Charlotte Football Club Actif 116 / 114 40% 1 18.11.2026 -
Robert Mizo Ashanti Gold Actif 113 / 106 40% 1 17.11.2026 -
Jonathan Gyan Liberty Professionals Actif 90 / 91 40% 1 17.11.2026 -
Aune Heggebø West Bromwich Albion Actif 133 / 121 40% 1 15.11.2026 -
Joe Gelhardt Hull City Actif 134 / 125 40% 1 15.11.2026 -
Ramiro Ruiz Rodríguez Atlético Tucumán Actif 122 / 114 40% 1 09.11.2026 -
Mandla Mahlangu Ajax Cape Town Actif 116 / 118 40% 1 09.11.2026 -
Matheus Nascimento FC Dallas Actif 125 / 127 40% 1 09.11.2026 -
Matías Fernández Independiente Rivadavia Actif 127 / 118 40% 1 08.11.2026 -
Rafael Navarro St. Louis CITY SC Actif 116 / 121 40% 4 05.11.2026 -
Zeki Amdouni Burnley Actif 139 / 124 40% 2 05.11.2026 -
Amin Boudri Los Angeles Football Club Actif 117 / 136 40% 2 03.11.2026 -
Dean Erasmus Platinum Stars Actif 96 / 85 40% 2 03.11.2026 -
Ammar Ramadan DAC Dunajska Streda Actif 122 / 117 40% 1 03.11.2026 -
Wessam Abou Ali Columbus Crew Actif 129 / 122 40% 2 02.11.2026 -
Martín Ojeda Orlando City Actif 128 / 126 40% 3 02.11.2026 -
Maren Haile-Selassie Chicago Fire Actif 127 / 115 40% 1 31.10.2026 -
Alan Lescano Argentinos Juniors Actif 125 / 137 40% 1 31.10.2026 -
Tashreeq Matthews Mamelodi Sundowns Actif 114 / 121 40% 1 30.10.2026 -
Manfred Ugalde Spartak Moscow Actif 134 / 128 40% 1 30.10.2026 -
Victor Olatunji Real Salt Lake Actif 121 / 127 40% 1 29.10.2026 -
Antony Portland Timbers Actif 127 / 140 40% 2 28.10.2026 -
João Peglow DC United Actif 121 / 114 40% 1 26.10.2026 -
Alexis Cuello San Lorenzo Actif 126 / 120 40% 2 23.10.2026 -
Georginio Rutter Brighton Actif 150 / 155 40% 1 23.10.2026 -
Alex Luna Instituto Actif 133 / 132 40% 1 22.10.2026 -
Dagur Dan Þórhallsson CF Montreal Actif 123 / 122 40% 1 22.10.2026 -
Sean Zawadzki Columbus Crew Actif 111 / 123 40% 1 21.10.2026 -
Jahkeele Marshall-Rutty New York Red Bulls Actif 123 / 120 40% 1 21.10.2026 -
Hannes Wolf New York City Actif 119 / 112 40% 1 20.10.2026 -
Nathan Ordaz Metalist Actif 105 / 116 40% 1 18.10.2026 -
Andrés Herrera Columbus Crew Actif 124 / 122 40% 1 14.10.2026 -
Telasco Segovia Inter Miami CF Actif 127 / 140 40% 1 13.10.2026 -
Adnan Courtois KV Oostende Actif 138 / 129 40% 2 12.10.2026 -
Iván Angulo Orlando City Actif 134 / 137 40% 1 12.10.2026 -
Nicolás Cordero Aldosivi Actif 115 / 120 40% 1 08.10.2026 -
Kian Spence Rotherham United Actif 106 / 113 72% 1 24.08.2026 Approuver